Voyager — WDE5209 — position and weather

sailwx.info

Track history (hours):
 
Tides and Currents Weather Stations Pressure Air Temp Water Temp Dewpoint Dewpoint Depression Visibility Wind Speed Wind Dir Waves Ship Positions

Voyager

Owner: Compass Rose Yacht Charters, LLC, Napa, CA. More information available from US FCC via Universal Licensing System and Coast Guard Vessel Documentation Center.

Last reported at 2018-Jul-15 09:03 UTC. Time now 2018-Jul-16 02:34 UTC.
Position N 37°52' W 122°19'.

Length 21 m; draft 20.3 m.

Type: Pleasure craft. MMSI: 367363460.

Date/timePositionNaut miles runAvg speedWind from/ knotsBaromVisibWave heightAir tempDewpointWater temp
2018-Jul-15 09:03N 37°52' W 122°19'0 0.0
2018-Jul-15 09:00N 37°52' W 122°19'0 0.0
2018-Jul-15 08:30N 37°52' W 122°19'0 0.0
2018-Jul-15 04:46N 37°52' W 122°19'0 0.0
2018-Jul-15 04:28N 37°52' W 122°19'0 0.0
2018-Jul-15 03:58N 37°52' W 122°19'0 0.0
2018-Jul-15 03:28N 37°52' W 122°19'2 4.4
2018-Jul-15 03:00N 37°51' W 122°21'4 7.8
2018-Jul-15 02:30N 37°47' W 122°23'0 0.7
2018-Jul-15 01:55N 37°47' W 122°23'0 0.9
2018-Jul-15 01:30N 37°47' W 122°23'1 3.0
2018-Jul-15 01:00N 37°48' W 122°22'1 1.6
2018-Jul-15 00:30N 37°49' W 122°23'2 4.7
2018-Jul-15 00:00N 37°50' W 122°25'3 5.9
2018-Jul-14 23:30N 37°49' W 122°29'3 5.9
2018-Jul-14 23:00N 37°49' W 122°25'2 4.6
2018-Jul-14 22:28N 37°47' W 122°23'0 0.0
2018-Jul-14 21:58N 37°47' W 122°23'1 3.2
2018-Jul-14 21:30N 37°48' W 122°22'4 8.0
2018-Jul-14 21:00N 37°52' W 122°20'1 0.0
2018-Jul-13 06:42N 37°52' W 122°19'0 0.0
2018-Jul-13 06:30N 37°52' W 122°19'0 0.0
2018-Jul-13 05:57N 37°52' W 122°19'0 0.2
2018-Jul-13 05:29N 37°52' W 122°19'2 5.0
2018-Jul-13 05:00N 37°50' W 122°21'3 7.0
2018-Jul-13 04:30N 37°48' W 122°18'1 2.7
2018-Jul-13 04:00N 37°48' W 122°17'4 7.3
2018-Jul-13 03:30N 37°49' W 122°21'4 7.1
2018-Jul-13 03:00N 37°50' W 122°25'2 4.6
2018-Jul-13 02:30N 37°49' W 122°28'2 4.8
2018-Jul-13 02:00N 37°49' W 122°25'2 4.9
2018-Jul-13 01:30N 37°47' W 122°23'2 4.1
2018-Jul-13 01:00N 37°48' W 122°20'3 6.0
2018-Jul-13 00:30N 37°48' W 122°17'2 4.4
2018-Jul-13 00:00N 37°48' W 122°19'3 6.3
2018-Jul-12 23:30N 37°51' W 122°20'  
2018-Jul-09 00:28N 37°52' W 122°19'1 1.3
2018-Jul-08 23:58N 37°52' W 122°20'4 9.4
2018-Jul-08 23:30N 37°48' W 122°23'1 2.3
2018-Jul-08 22:57N 37°48' W 122°22'4 8.3
2018-Jul-08 22:30N 37°51' W 122°20'1 2.2
2018-Jul-08 21:51N 37°52' W 122°19'0 0.0
2018-Jul-08 21:27N 37°52' W 122°19'0 0.0
2018-Jul-08 21:00N 37°52' W 122°19'0 0.1
2018-Jul-08 20:29N 37°52' W 122°19'0 0.0
2018-Jul-08 19:59N 37°52' W 122°19'0 0.0
2018-Jul-08 19:26N 37°52' W 122°19'0 0.0
2018-Jul-08 18:56N 37°52' W 122°19'0 0.0
2018-Jul-08 18:29N 37°52' W 122°19'  
Track history (hours):
 
Tides and Currents Weather Stations Pressure Air Temp Water Temp Dewpoint Dewpoint Depression Visibility Wind Speed Wind Dir Waves Ship Positions

Voyager

Owner: Compass Rose Yacht Charters, LLC, Napa, CA. More information available from US FCC via Universal Licensing System and Coast Guard Vessel Documentation Center.

Last reported at 2018-Jul-15 09:03 UTC. Time now 2018-Jul-16 02:34 UTC.
Position N 37°52' W 122°19'.

Length 21 m; draft 20.3 m.

Type: Pleasure craft. MMSI: 367363460.

Date/timePositionNaut miles runAvg speedWind from/ knotsBaromVisibWave heightAir tempDewpointWater temp
2018-Jul-15 09:03N 37°52' W 122°19'0 0.0
2018-Jul-15 09:00N 37°52' W 122°19'0 0.0
2018-Jul-15 08:30N 37°52' W 122°19'0 0.0
2018-Jul-15 04:46N 37°52' W 122°19'0 0.0
2018-Jul-15 04:28N 37°52' W 122°19'0 0.0
2018-Jul-15 03:58N 37°52' W 122°19'0 0.0
2018-Jul-15 03:28N 37°52' W 122°19'2 4.4
2018-Jul-15 03:00N 37°51' W 122°21'4 7.8
2018-Jul-15 02:30N 37°47' W 122°23'0 0.7
2018-Jul-15 01:55N 37°47' W 122°23'0 0.9
2018-Jul-15 01:30N 37°47' W 122°23'1 3.0
2018-Jul-15 01:00N 37°48' W 122°22'1 1.6
2018-Jul-15 00:30N 37°49' W 122°23'2 4.7
2018-Jul-15 00:00N 37°50' W 122°25'3 5.9
2018-Jul-14 23:30N 37°49' W 122°29'3 5.9
2018-Jul-14 23:00N 37°49' W 122°25'2 4.6
2018-Jul-14 22:28N 37°47' W 122°23'0 0.0
2018-Jul-14 21:58N 37°47' W 122°23'1 3.2
2018-Jul-14 21:30N 37°48' W 122°22'4 8.0
2018-Jul-14 21:00N 37°52' W 122°20'1 0.0
2018-Jul-13 06:42N 37°52' W 122°19'0 0.0
2018-Jul-13 06:30N 37°52' W 122°19'0 0.0
2018-Jul-13 05:57N 37°52' W 122°19'0 0.2
2018-Jul-13 05:29N 37°52' W 122°19'2 5.0
2018-Jul-13 05:00N 37°50' W 122°21'3 7.0
2018-Jul-13 04:30N 37°48' W 122°18'1 2.7
2018-Jul-13 04:00N 37°48' W 122°17'4 7.3
2018-Jul-13 03:30N 37°49' W 122°21'4 7.1
2018-Jul-13 03:00N 37°50' W 122°25'2 4.6
2018-Jul-13 02:30N 37°49' W 122°28'2 4.8
2018-Jul-13 02:00N 37°49' W 122°25'2 4.9
2018-Jul-13 01:30N 37°47' W 122°23'2 4.1
2018-Jul-13 01:00N 37°48' W 122°20'3 6.0
2018-Jul-13 00:30N 37°48' W 122°17'2 4.4
2018-Jul-13 00:00N 37°48' W 122°19'3 6.3
2018-Jul-12 23:30N 37°51' W 122°20'  
2018-Jul-09 00:28N 37°52' W 122°19'1 1.3
2018-Jul-08 23:58N 37°52' W 122°20'4 9.4
2018-Jul-08 23:30N 37°48' W 122°23'1 2.3
2018-Jul-08 22:57N 37°48' W 122°22'4 8.3
2018-Jul-08 22:30N 37°51' W 122°20'1 2.2
2018-Jul-08 21:51N 37°52' W 122°19'0 0.0
2018-Jul-08 21:27N 37°52' W 122°19'0 0.0
2018-Jul-08 21:00N 37°52' W 122°19'0 0.1
2018-Jul-08 20:29N 37°52' W 122°19'0 0.0
2018-Jul-08 19:59N 37°52' W 122°19'0 0.0
2018-Jul-08 19:26N 37°52' W 122°19'0 0.0
2018-Jul-08 18:56N 37°52' W 122°19'0 0.0
2018-Jul-08 18:29N 37°52' W 122°19'  

Dump ship's entire track history